sensor_id;sensor_type;location;lat;lon;timestamp;pressure;altitude;pressure_sealevel;temperature;humidity
42411;BME280;28056;51.112;0.984;2022-08-01T00:04:47;100947.42;;;22.82;51.06
42411;BME280;28056;51.112;0.984;2022-08-01T00:07:15;100948.63;;;22.91;50.64
42411;BME280;28056;51.112;0.984;2022-08-01T00:09:43;100952.76;;;22.84;50.63
42411;BME280;28056;51.112;0.984;2022-08-01T00:12:11;100949.73;;;22.55;51.87
42411;BME280;28056;51.112;0.984;2022-08-01T00:14:38;100949.45;;;22.98;51.29
42411;BME280;28056;51.112;0.984;2022-08-01T00:17:06;100946.44;;;22.59;51.06
42411;BME280;28056;51.112;0.984;2022-08-01T00:19:34;100949.24;;;22.48;51.07
42411;BME280;28056;51.112;0.984;2022-08-01T00:22:01;100947.77;;;22.72;50.94
42411;BME280;28056;51.112;0.984;2022-08-01T00:24:29;100948.70;;;22.77;51.13
42411;BME280;28056;51.112;0.984;2022-08-01T00:26:57;100946.49;;;22.80;51.01
42411;BME280;28056;51.112;0.984;2022-08-01T00:29:24;100951.18;;;22.26;51.66
42411;BME280;28056;51.112;0.984;2022-08-01T00:31:52;100949.08;;;22.61;51.14
42411;BME280;28056;51.112;0.984;2022-08-01T00:34:19;100951.55;;;22.64;50.89
42411;BME280;28056;51.112;0.984;2022-08-01T00:36:47;100958.34;;;22.38;51.43
42411;BME280;28056;51.112;0.984;2022-08-01T00:39:14;100958.20;;;21.64;52.81
42411;BME280;28056;51.112;0.984;2022-08-01T00:41:42;100959.68;;;21.62;53.04
42411;BME280;28056;51.112;0.984;2022-08-01T00:44:09;100962.25;;;21.31;53.67
42411;BME280;28056;51.112;0.984;2022-08-01T00:46:37;100963.44;;;21.21;54.10
42411;BME280;28056;51.112;0.984;2022-08-01T00:49:04;100963.27;;;21.65;53.06
42411;BME280;28056;51.112;0.984;2022-08-01T00:51:33;100962.45;;;21.93;52.50
42411;BME280;28056;51.112;0.984;2022-08-01T00:54:00;100962.47;;;21.28;54.09
42411;BME280;28056;51.112;0.984;2022-08-01T00:56:28;100960.15;;;21.92;52.57
42411;BME280;28056;51.112;0.984;2022-08-01T00:58:56;100956.88;;;21.71;52.60
42411;BME280;28056;51.112;0.984;2022-08-01T01:01:23;100955.36;;;21.76;53.06
42411;BME280;28056;51.112;0.984;2022-08-01T01:03:52;100954.66;;;21.65;53.38
42411;BME280;28056;51.112;0.984;2022-08-01T01:06:27;100952.81;;;21.75;52.93
42411;BME280;28056;51.112;0.984;2022-08-01T01:09:07;100955.66;;;21.93;52.63
42411;BME280;28056;51.112;0.984;2022-08-01T01:11:42;100955.42;;;21.32;54.08
42411;BME280;28056;51.112;0.984;2022-08-01T01:14:18;100953.06;;;21.77;53.52
42411;BME280;28056;51.112;0.984;2022-08-01T01:16:48;100952.34;;;21.84;53.61
42411;BME280;28056;51.112;0.984;2022-08-01T01:19:23;100950.84;;;21.74;53.35
42411;BME280;28056;51.112;0.984;2022-08-01T01:22:08;100949.91;;;21.92;52.94
42411;BME280;28056;51.112;0.984;2022-08-01T01:24:50;100954.66;;;21.85;53.91
42411;BME280;28056;51.112;0.984;2022-08-01T01:27:35;100955.05;;;21.43;53.88
42411;BME280;28056;51.112;0.984;2022-08-01T01:30:06;100953.48;;;21.39;53.86
42411;BME280;28056;51.112;0.984;2022-08-01T01:32:38;100952.02;;;20.93;54.65
42411;BME280;28056;51.112;0.984;2022-08-01T01:35:09;100950.22;;;21.04;54.43
42411;BME280;28056;51.112;0.984;2022-08-01T01:37:38;100949.61;;;20.75;55.99
42411;BME280;28056;51.112;0.984;2022-08-01T01:40:10;100949.31;;;19.89;57.59
42411;BME280;28056;51.112;0.984;2022-08-01T01:42:39;100949.86;;;20.64;56.26
42411;BME280;28056;51.112;0.984;2022-08-01T01:45:10;100948.99;;;21.02;54.70
42411;BME280;28056;51.112;0.984;2022-08-01T01:47:38;100950.60;;;21.34;53.98
42411;BME280;28056;51.112;0.984;2022-08-01T01:50:09;100952.38;;;21.67;53.81
42411;BME280;28056;51.112;0.984;2022-08-01T01:52:39;100951.01;;;21.84;53.72
42411;BME280;28056;51.112;0.984;2022-08-01T01:55:08;100952.76;;;21.64;53.10
42411;BME280;28056;51.112;0.984;2022-08-01T01:57:38;100955.46;;;21.26;53.93
42411;BME280;28056;51.112;0.984;2022-08-01T02:00:14;100962.31;;;21.69;53.68
42411;BME280;28056;51.112;0.984;2022-08-01T02:02:42;100966.23;;;21.46;53.57
42411;BME280;28056;51.112;0.984;2022-08-01T02:05:12;100966.43;;;21.03;54.39
42411;BME280;28056;51.112;0.984;2022-08-01T02:07:41;100966.21;;;21.20;54.05
42411;BME280;28056;51.112;0.984;2022-08-01T02:10:10;100962.28;;;21.32;53.70
42411;BME280;28056;51.112;0.984;2022-08-01T02:12:41;100961.94;;;20.77;54.83
42411;BME280;28056;51.112;0.984;2022-08-01T02:15:10;100960.19;;;20.12;56.36
42411;BME280;28056;51.112;0.984;2022-08-01T02:17:43;100964.70;;;21.15;55.07
42411;BME280;28056;51.112;0.984;2022-08-01T02:20:12;100970.42;;;21.05;54.22
42411;BME280;28056;51.112;0.984;2022-08-01T02:22:44;100968.83;;;21.46;53.74
42411;BME280;28056;51.112;0.984;2022-08-01T02:25:20;100967.31;;;20.57;55.54
42411;BME280;28056;51.112;0.984;2022-08-01T02:27:55;100970.77;;;21.03;54.57
42411;BME280;28056;51.112;0.984;2022-08-01T02:30:24;100968.44;;;20.29;55.65
42411;BME280;28056;51.112;0.984;2022-08-01T02:32:58;100967.01;;;20.93;54.65
42411;BME280;28056;51.112;0.984;2022-08-01T02:35:29;100967.88;;;19.71;57.51
42411;BME280;28056;51.112;0.984;2022-08-01T02:37:59;100966.99;;;20.43;56.30
42411;BME280;28056;51.112;0.984;2022-08-01T02:40:29;100968.35;;;19.95;57.16
42411;BME280;28056;51.112;0.984;2022-08-01T02:43:01;100969.41;;;19.97;56.75
42411;BME280;28056;51.112;0.984;2022-08-01T02:45:31;100968.35;;;19.40;57.96
42411;BME280;28056;51.112;0.984;2022-08-01T02:48:04;100966.48;;;18.47;60.28
42411;BME280;28056;51.112;0.984;2022-08-01T02:50:34;100971.09;;;18.63;60.80
42411;BME280;28056;51.112;0.984;2022-08-01T02:53:04;100967.44;;;19.66;58.22
42411;BME280;28056;51.112;0.984;2022-08-01T02:55:34;100963.34;;;19.88;57.40
42411;BME280;28056;51.112;0.984;2022-08-01T02:58:02;100961.60;;;19.39;57.89
42411;BME280;28056;51.112;0.984;2022-08-01T03:00:31;100958.27;;;20.01;56.85
42411;BME280;28056;51.112;0.984;2022-08-01T03:03:01;100961.77;;;19.19;57.98
42411;BME280;28056;51.112;0.984;2022-08-01T03:05:30;100960.63;;;19.44;57.99
42411;BME280;28056;51.112;0.984;2022-08-01T03:07:59;100962.21;;;19.49;57.36
42411;BME280;28056;51.112;0.984;2022-08-01T03:10:28;100966.03;;;19.64;56.50
42411;BME280;28056;51.112;0.984;2022-08-01T03:12:58;100960.85;;;20.08;56.22
42411;BME280;28056;51.112;0.984;2022-08-01T03:15:29;100960.49;;;20.01;56.31
42411;BME280;28056;51.112;0.984;2022-08-01T03:17:59;100959.47;;;19.58;56.77
42411;BME280;28056;51.112;0.984;2022-08-01T03:20:28;100959.91;;;19.03;58.13
42411;BME280;28056;51.112;0.984;2022-08-01T03:22:59;100958.04;;;19.26;57.46
42411;BME280;28056;51.112;0.984;2022-08-01T03:25:28;100950.57;;;20.04;56.18
42411;BME280;28056;51.112;0.984;2022-08-01T03:28:02;100944.23;;;18.60;58.52
42411;BME280;28056;51.112;0.984;2022-08-01T03:30:31;100943.20;;;18.83;58.55
42411;BME280;28056;51.112;0.984;2022-08-01T03:33:00;100943.02;;;19.31;58.07
42411;BME280;28056;51.112;0.984;2022-08-01T03:35:30;100943.99;;;19.65;56.98
42411;BME280;28056;51.112;0.984;2022-08-01T03:38:01;100947.05;;;19.78;56.01
42411;BME280;28056;51.112;0.984;2022-08-01T03:40:35;100949.28;;;19.55;57.02
42411;BME280;28056;51.112;0.984;2022-08-01T03:43:08;100949.90;;;19.50;56.89
42411;BME280;28056;51.112;0.984;2022-08-01T03:45:40;100949.49;;;19.54;56.73
42411;BME280;28056;51.112;0.984;2022-08-01T03:48:10;100947.60;;;19.78;56.51
42411;BME280;28056;51.112;0.984;2022-08-01T03:50:43;100946.80;;;20.08;55.81
42411;BME280;28056;51.112;0.984;2022-08-01T03:53:13;100949.44;;;19.78;56.69
42411;BME280;28056;51.112;0.984;2022-08-01T03:55:42;100950.72;;;19.94;55.93
42411;BME280;28056;51.112;0.984;2022-08-01T03:58:10;100956.79;;;19.50;56.65
42411;BME280;28056;51.112;0.984;2022-08-01T04:00:40;100958.82;;;19.36;56.91
42411;BME280;28056;51.112;0.984;2022-08-01T04:03:08;100956.33;;;20.02;55.78
42411;BME280;28056;51.112;0.984;2022-08-01T04:05:36;100950.93;;;20.46;54.78
42411;BME280;28056;51.112;0.984;2022-08-01T04:08:04;100946.80;;;20.48;54.12
42411;BME280;28056;51.112;0.984;2022-08-01T04:10:31;100945.32;;;20.73;53.10
42411;BME280;28056;51.112;0.984;2022-08-01T04:12:59;100946.16;;;20.72;52.99
42411;BME280;28056;51.112;0.984;2022-08-01T04:15:27;100943.14;;;20.55;52.83
42411;BME280;28056;51.112;0.984;2022-08-01T04:17:55;100946.20;;;20.85;52.14
42411;BME280;28056;51.112;0.984;2022-08-01T04:20:23;100946.28;;;21.18;51.50
42411;BME280;28056;51.112;0.984;2022-08-01T04:22:50;100950.04;;;20.86;51.61
42411;BME280;28056;51.112;0.984;2022-08-01T04:25:23;100952.83;;;20.87;51.59
42411;BME280;28056;51.112;0.984;2022-08-01T04:27:53;100954.66;;;20.82;51.72
42411;BME280;28056;51.112;0.984;2022-08-01T04:30:25;100954.78;;;20.98;51.81
42411;BME280;28056;51.112;0.984;2022-08-01T04:32:55;100951.85;;;20.64;52.49
42411;BME280;28056;51.112;0.984;2022-08-01T04:35:25;100949.76;;;20.45;52.57
42411;BME280;28056;51.112;0.984;2022-08-01T04:37:54;100947.02;;;20.61;51.73
42411;BME280;28056;51.112;0.984;2022-08-01T04:40:23;100947.84;;;20.66;51.62
42411;BME280;28056;51.112;0.984;2022-08-01T04:42:51;100950.08;;;20.75;51.16
42411;BME280;28056;51.112;0.984;2022-08-01T04:45:19;100956.68;;;20.64;51.42
42411;BME280;28056;51.112;0.984;2022-08-01T04:47:49;100961.97;;;20.79;51.73
42411;BME280;28056;51.112;0.984;2022-08-01T04:50:18;100966.10;;;20.78;51.85
42411;BME280;28056;51.112;0.984;2022-08-01T04:52:45;100962.09;;;20.65;51.76
42411;BME280;28056;51.112;0.984;2022-08-01T04:55:13;100961.42;;;20.80;51.87
42411;BME280;28056;51.112;0.984;2022-08-01T04:57:44;100962.23;;;20.49;52.20
42411;BME280;28056;51.112;0.984;2022-08-01T05:00:12;100965.08;;;20.60;52.36
42411;BME280;28056;51.112;0.984;2022-08-01T05:02:40;100966.75;;;20.21;52.85
42411;BME280;28056;51.112;0.984;2022-08-01T05:05:08;100971.26;;;20.53;52.48
42411;BME280;28056;51.112;0.984;2022-08-01T05:07:35;100971.91;;;20.47;52.09
42411;BME280;28056;51.112;0.984;2022-08-01T05:10:03;100979.53;;;20.26;52.13
42411;BME280;28056;51.112;0.984;2022-08-01T05:12:30;100980.99;;;20.57;51.98
42411;BME280;28056;51.112;0.984;2022-08-01T05:14:58;100984.38;;;20.62;51.94
42411;BME280;28056;51.112;0.984;2022-08-01T05:17:26;100982.65;;;20.40;52.36
42411;BME280;28056;51.112;0.984;2022-08-01T05:19:53;100980.40;;;20.78;52.07
42411;BME280;28056;51.112;0.984;2022-08-01T05:22:21;100976.03;;;20.61;52.19
42411;BME280;28056;51.112;0.984;2022-08-01T05:24:48;100977.34;;;20.85;52.22
42411;BME280;28056;51.112;0.984;2022-08-01T05:27:16;100974.47;;;20.58;52.57
42411;BME280;28056;51.112;0.984;2022-08-01T05:29:44;100973.04;;;20.89;52.61
42411;BME280;28056;51.112;0.984;2022-08-01T05:32:11;100974.08;;;20.06;54.36
42411;BME280;28056;51.112;0.984;2022-08-01T05:34:39;100971.41;;;20.52;54.01
42411;BME280;28056;51.112;0.984;2022-08-01T05:37:06;100972.12;;;20.54;54.54
42411;BME280;28056;51.112;0.984;2022-08-01T05:39:34;100971.57;;;20.43;55.01
42411;BME280;28056;51.112;0.984;2022-08-01T05:42:02;100975.60;;;20.74;54.35
42411;BME280;28056;51.112;0.984;2022-08-01T05:44:29;100983.83;;;21.11;52.95
42411;BME280;28056;51.112;0.984;2022-08-01T05:46:57;100984.93;;;20.93;53.97
42411;BME280;28056;51.112;0.984;2022-08-01T05:49:24;100984.55;;;21.00;53.92
42411;BME280;28056;51.112;0.984;2022-08-01T05:51:52;100984.44;;;21.43;53.80
42411;BME280;28056;51.112;0.984;2022-08-01T05:54:19;100991.22;;;21.32;53.65
42411;BME280;28056;51.112;0.984;2022-08-01T05:56:47;100995.26;;;21.04;54.21
42411;BME280;28056;51.112;0.984;2022-08-01T05:59:16;100996.10;;;21.41;53.86
42411;BME280;28056;51.112;0.984;2022-08-01T06:01:43;100995.61;;;21.03;53.84
42411;BME280;28056;51.112;0.984;2022-08-01T06:04:11;100993.27;;;21.61;53.42
42411;BME280;28056;51.112;0.984;2022-08-01T06:06:38;100992.87;;;21.57;53.09
42411;BME280;28056;51.112;0.984;2022-08-01T06:09:06;100995.09;;;21.57;53.50
42411;BME280;28056;51.112;0.984;2022-08-01T06:11:33;100998.61;;;21.06;54.20
42411;BME280;28056;51.112;0.984;2022-08-01T06:14:01;101000.68;;;21.77;53.93
42411;BME280;28056;51.112;0.984;2022-08-01T06:16:28;101000.74;;;21.72;53.79
42411;BME280;28056;51.112;0.984;2022-08-01T06:18:56;100997.09;;;21.69;53.72
42411;BME280;28056;51.112;0.984;2022-08-01T06:21:24;100995.23;;;21.89;53.43
42411;BME280;28056;51.112;0.984;2022-08-01T06:23:51;100995.15;;;22.17;53.35
42411;BME280;28056;51.112;0.984;2022-08-01T06:26:20;100995.94;;;21.34;54.71
42411;BME280;28056;51.112;0.984;2022-08-01T06:28:47;100998.18;;;21.50;54.37
42411;BME280;28056;51.112;0.984;2022-08-01T06:31:15;100997.62;;;21.79;54.69
42411;BME280;28056;51.112;0.984;2022-08-01T06:33:42;100997.66;;;21.37;55.22
42411;BME280;28056;51.112;0.984;2022-08-01T06:36:10;100994.79;;;21.05;56.09
42411;BME280;28056;51.112;0.984;2022-08-01T06:38:38;100997.04;;;20.85;55.83
42411;BME280;28056;51.112;0.984;2022-08-01T06:41:06;100998.75;;;21.89;54.94
42411;BME280;28056;51.112;0.984;2022-08-01T06:43:34;100998.90;;;22.14;54.91
42411;BME280;28056;51.112;0.984;2022-08-01T06:46:02;100999.12;;;22.27;53.60
42411;BME280;28056;51.112;0.984;2022-08-01T06:48:29;101001.07;;;22.01;54.67
42411;BME280;28056;51.112;0.984;2022-08-01T06:50:57;101002.92;;;21.79;55.23
42411;BME280;28056;51.112;0.984;2022-08-01T06:53:24;101007.32;;;22.45;54.25
42411;BME280;28056;51.112;0.984;2022-08-01T06:55:57;101009.13;;;21.51;53.87
42411;BME280;28056;51.112;0.984;2022-08-01T06:58:25;101010.43;;;22.09;54.00
42411;BME280;28056;51.112;0.984;2022-08-01T07:00:52;101008.32;;;22.87;53.50
42411;BME280;28056;51.112;0.984;2022-08-01T07:03:20;101011.32;;;22.60;54.36
42411;BME280;28056;51.112;0.984;2022-08-01T07:05:47;101007.40;;;22.22;54.43
42411;BME280;28056;51.112;0.984;2022-08-01T07:08:15;101002.44;;;22.65;52.98
42411;BME280;28056;51.112;0.984;2022-08-01T07:10:42;101004.30;;;22.03;52.94
42411;BME280;28056;51.112;0.984;2022-08-01T07:13:10;101004.75;;;22.23;54.03
42411;BME280;28056;51.112;0.984;2022-08-01T07:15:37;101007.66;;;21.61;53.04
42411;BME280;28056;51.112;0.984;2022-08-01T07:18:05;101009.58;;;21.69;54.50
42411;BME280;28056;51.112;0.984;2022-08-01T07:20:32;101014.13;;;22.08;52.57
42411;BME280;28056;51.112;0.984;2022-08-01T07:23:00;101018.20;;;22.56;52.05
42411;BME280;28056;51.112;0.984;2022-08-01T07:25:28;101024.51;;;22.45;52.08
42411;BME280;28056;51.112;0.984;2022-08-01T07:27:55;101021.34;;;22.69;51.22
42411;BME280;28056;51.112;0.984;2022-08-01T07:30:22;101023.85;;;22.63;50.85
42411;BME280;28056;51.112;0.984;2022-08-01T07:32:50;101022.00;;;22.91;50.70
42411;BME280;28056;51.112;0.984;2022-08-01T07:35:17;101024.49;;;23.24;50.79
42411;BME280;28056;51.112;0.984;2022-08-01T07:37:45;101030.19;;;22.99;49.87
42411;BME280;28056;51.112;0.984;2022-08-01T07:40:13;101035.98;;;22.61;50.54
42411;BME280;28056;51.112;0.984;2022-08-01T07:42:41;101037.55;;;23.06;50.48
42411;BME280;28056;51.112;0.984;2022-08-01T07:45:09;101041.29;;;22.52;50.95
42411;BME280;28056;51.112;0.984;2022-08-01T07:47:37;101041.19;;;22.54;50.60
42411;BME280;28056;51.112;0.984;2022-08-01T07:50:05;101034.35;;;23.04;49.57
42411;BME280;28056;51.112;0.984;2022-08-01T07:52:33;101035.01;;;22.78;50.29
42411;BME280;28056;51.112;0.984;2022-08-01T07:55:00;101035.71;;;23.05;50.91
42411;BME280;28056;51.112;0.984;2022-08-01T07:57:28;101035.48;;;23.09;50.57
42411;BME280;28056;51.112;0.984;2022-08-01T07:59:55;101036.00;;;23.42;49.91
42411;BME280;28056;51.112;0.984;2022-08-01T08:02:23;101033.35;;;23.04;50.70
42411;BME280;28056;51.112;0.984;2022-08-01T08:04:50;101040.77;;;22.77;50.74
42411;BME280;28056;51.112;0.984;2022-08-01T08:07:18;101040.19;;;21.72;51.27
42411;BME280;28056;51.112;0.984;2022-08-01T08:09:45;101036.02;;;22.85;49.25
42411;BME280;28056;51.112;0.984;2022-08-01T08:12:13;101040.61;;;22.40;50.30
42411;BME280;28056;51.112;0.984;2022-08-01T08:14:40;101038.66;;;23.15;50.20
42411;BME280;28056;51.112;0.984;2022-08-01T08:17:08;101037.97;;;23.33;49.52
42411;BME280;28056;51.112;0.984;2022-08-01T08:19:35;101037.32;;;23.79;48.21
42411;BME280;28056;51.112;0.984;2022-08-01T08:22:03;101038.21;;;23.28;47.38
42411;BME280;28056;51.112;0.984;2022-08-01T08:24:30;101040.27;;;23.31;48.33
42411;BME280;28056;51.112;0.984;2022-08-01T08:26:59;101043.49;;;23.40;48.82
42411;BME280;28056;51.112;0.984;2022-08-01T08:29:29;101043.61;;;23.58;47.82
42411;BME280;28056;51.112;0.984;2022-08-01T08:31:57;101046.55;;;23.19;49.21
42411;BME280;28056;51.112;0.984;2022-08-01T08:34:27;101048.48;;;23.76;47.55
42411;BME280;28056;51.112;0.984;2022-08-01T08:36:55;101054.24;;;22.17;49.88
42411;BME280;28056;51.112;0.984;2022-08-01T08:39:23;101055.47;;;22.06;50.10
42411;BME280;28056;51.112;0.984;2022-08-01T08:41:51;101058.89;;;22.42;50.80
42411;BME280;28056;51.112;0.984;2022-08-01T08:44:18;101050.64;;;23.48;49.25
42411;BME280;28056;51.112;0.984;2022-08-01T08:46:48;101048.98;;;22.92;49.44
42411;BME280;28056;51.112;0.984;2022-08-01T08:49:19;101047.53;;;23.60;48.87
42411;BME280;28056;51.112;0.984;2022-08-01T08:51:49;101042.91;;;23.73;50.60
42411;BME280;28056;51.112;0.984;2022-08-01T08:54:18;101043.84;;;23.27;49.05
42411;BME280;28056;51.112;0.984;2022-08-01T08:56:47;101043.24;;;23.77;48.41
42411;BME280;28056;51.112;0.984;2022-08-01T08:59:16;101041.66;;;23.66;48.53
42411;BME280;28056;51.112;0.984;2022-08-01T09:01:44;101040.09;;;23.65;48.49
42411;BME280;28056;51.112;0.984;2022-08-01T09:04:11;101046.43;;;24.44;47.90
42411;BME280;28056;51.112;0.984;2022-08-01T09:06:39;101048.18;;;24.98;45.69
42411;BME280;28056;51.112;0.984;2022-08-01T09:09:08;101049.03;;;23.73;47.25
42411;BME280;28056;51.112;0.984;2022-08-01T09:11:35;101049.50;;;23.98;46.45
42411;BME280;28056;51.112;0.984;2022-08-01T09:14:07;101051.79;;;24.27;45.98
42411;BME280;28056;51.112;0.984;2022-08-01T09:16:35;101053.98;;;25.34;44.10
42411;BME280;28056;51.112;0.984;2022-08-01T09:19:10;101054.61;;;24.80;44.71
42411;BME280;28056;51.112;0.984;2022-08-01T09:21:38;101058.27;;;24.42;46.57
42411;BME280;28056;51.112;0.984;2022-08-01T09:24:14;101058.08;;;23.67;45.74
42411;BME280;28056;51.112;0.984;2022-08-01T09:26:42;101057.37;;;24.17;46.28
42411;BME280;28056;51.112;0.984;2022-08-01T09:29:19;101057.76;;;23.67;47.94
42411;BME280;28056;51.112;0.984;2022-08-01T09:31:47;101055.26;;;23.37;45.30
42411;BME280;28056;51.112;0.984;2022-08-01T09:34:15;101055.31;;;24.30;46.56
42411;BME280;28056;51.112;0.984;2022-08-01T09:36:46;101052.80;;;24.26;45.24
42411;BME280;28056;51.112;0.984;2022-08-01T09:39:14;101053.76;;;24.29;46.72
42411;BME280;28056;51.112;0.984;2022-08-01T09:41:42;101058.59;;;24.23;45.95
42411;BME280;28056;51.112;0.984;2022-08-01T09:44:10;101062.87;;;23.81;46.85
42411;BME280;28056;51.112;0.984;2022-08-01T09:46:49;101063.41;;;23.57;46.35
42411;BME280;28056;51.112;0.984;2022-08-01T09:49:28;101064.44;;;24.12;44.30
42411;BME280;28056;51.112;0.984;2022-08-01T09:51:57;101067.26;;;23.91;46.17
42411;BME280;28056;51.112;0.984;2022-08-01T09:54:30;101067.92;;;24.52;44.29
42411;BME280;28056;51.112;0.984;2022-08-01T09:57:09;101062.62;;;23.81;43.95
42411;BME280;28056;51.112;0.984;2022-08-01T09:59:38;101054.67;;;24.12;47.08
42411;BME280;28056;51.112;0.984;2022-08-01T10:02:05;101055.34;;;23.59;46.84
42411;BME280;28056;51.112;0.984;2022-08-01T10:04:33;101056.66;;;23.72;45.22
42411;BME280;28056;51.112;0.984;2022-08-01T10:07:06;101057.71;;;22.62;47.11
42411;BME280;28056;51.112;0.984;2022-08-01T10:09:35;101057.50;;;24.52;45.23
42411;BME280;28056;51.112;0.984;2022-08-01T10:12:03;101053.11;;;24.43;45.86
42411;BME280;28056;51.112;0.984;2022-08-01T10:14:31;101051.36;;;23.73;47.18
42411;BME280;28056;51.112;0.984;2022-08-01T10:17:01;101059.82;;;24.25;45.38
42411;BME280;28056;51.112;0.984;2022-08-01T10:19:30;101063.30;;;23.43;47.30
42411;BME280;28056;51.112;0.984;2022-08-01T10:21:57;101062.21;;;24.36;45.25
42411;BME280;28056;51.112;0.984;2022-08-01T10:24:26;101060.75;;;23.32;46.15
42411;BME280;28056;51.112;0.984;2022-08-01T10:26:58;101059.74;;;24.80;44.69
42411;BME280;28056;51.112;0.984;2022-08-01T10:29:26;101067.85;;;25.12;43.90
42411;BME280;28056;51.112;0.984;2022-08-01T10:31:54;101067.97;;;24.95;43.18
42411;BME280;28056;51.112;0.984;2022-08-01T10:34:22;101073.42;;;23.11;46.36
42411;BME280;28056;51.112;0.984;2022-08-01T10:36:50;101074.62;;;24.50;43.58
42411;BME280;28056;51.112;0.984;2022-08-01T10:39:18;101072.93;;;23.72;45.30
42411;BME280;28056;51.112;0.984;2022-08-01T10:41:46;101070.55;;;23.82;44.31
42411;BME280;28056;51.112;0.984;2022-08-01T10:44:15;101072.13;;;23.69;46.26
42411;BME280;28056;51.112;0.984;2022-08-01T10:46:48;101079.65;;;22.48;47.13
42411;BME280;28056;51.112;0.984;2022-08-01T10:49:19;101077.87;;;23.54;46.91
42411;BME280;28056;51.112;0.984;2022-08-01T10:51:49;101073.67;;;24.89;44.94
42411;BME280;28056;51.112;0.984;2022-08-01T10:54:17;101070.29;;;23.80;45.98
42411;BME280;28056;51.112;0.984;2022-08-01T10:56:46;101066.61;;;24.86;44.58
42411;BME280;28056;51.112;0.984;2022-08-01T10:59:19;101065.64;;;24.28;44.61
42411;BME280;28056;51.112;0.984;2022-08-01T11:01:56;101071.23;;;23.59;46.15
42411;BME280;28056;51.112;0.984;2022-08-01T11:04:33;101072.54;;;23.90;44.67
42411;BME280;28056;51.112;0.984;2022-08-01T11:07:05;101069.16;;;25.37;41.69
42411;BME280;28056;51.112;0.984;2022-08-01T11:09:42;101068.86;;;24.93;44.56
42411;BME280;28056;51.112;0.984;2022-08-01T11:12:11;101065.93;;;24.90;42.76
42411;BME280;28056;51.112;0.984;2022-08-01T11:15:44;101072.03;;;24.11;43.55
42411;BME280;28056;51.112;0.984;2022-08-01T11:18:30;101077.56;;;24.72;41.82
42411;BME280;28056;51.112;0.984;2022-08-01T11:21:00;101074.43;;;24.04;42.99
42411;BME280;28056;51.112;0.984;2022-08-01T11:23:29;101077.59;;;23.66;45.65
42411;BME280;28056;51.112;0.984;2022-08-01T11:26:14;101074.97;;;24.29;45.25
42411;BME280;28056;51.112;0.984;2022-08-01T11:28:44;101071.79;;;25.45;44.02
42411;BME280;28056;51.112;0.984;2022-08-01T11:31:28;101071.66;;;25.21;44.74
42411;BME280;28056;51.112;0.984;2022-08-01T11:33:56;101065.31;;;25.23;45.16
42411;BME280;28056;51.112;0.984;2022-08-01T11:36:23;101060.02;;;25.29;43.23
42411;BME280;28056;51.112;0.984;2022-08-01T11:39:12;101062.44;;;25.53;40.82
42411;BME280;28056;51.112;0.984;2022-08-01T11:41:41;101058.34;;;27.12;36.69
42411;BME280;28056;51.112;0.984;2022-08-01T11:44:10;101051.06;;;26.00;38.28
42411;BME280;28056;51.112;0.984;2022-08-01T11:47:10;101047.50;;;27.23;38.89
42411;BME280;28056;51.112;0.984;2022-08-01T11:49:46;101046.75;;;26.70;40.10
42411;BME280;28056;51.112;0.984;2022-08-01T11:52:17;101043.28;;;27.65;38.45
42411;BME280;28056;51.112;0.984;2022-08-01T11:54:46;101043.93;;;27.59;36.29
42411;BME280;28056;51.112;0.984;2022-08-01T11:57:17;101043.39;;;28.28;36.06
42411;BME280;28056;51.112;0.984;2022-08-01T11:59:47;101039.36;;;28.83;34.15
42411;BME280;28056;51.112;0.984;2022-08-01T12:02:20;101039.24;;;28.33;36.26
42411;BME280;28056;51.112;0.984;2022-08-01T12:04:51;101039.59;;;27.52;36.61
42411;BME280;28056;51.112;0.984;2022-08-01T12:07:20;101038.59;;;28.36;37.00
42411;BME280;28056;51.112;0.984;2022-08-01T12:09:57;101037.07;;;27.35;35.53
42411;BME280;28056;51.112;0.984;2022-08-01T12:12:24;101033.11;;;27.73;34.10
42411;BME280;28056;51.112;0.984;2022-08-01T12:14:54;101031.53;;;26.84;36.43
42411;BME280;28056;51.112;0.984;2022-08-01T12:17:32;101026.51;;;27.44;37.60
42411;BME280;28056;51.112;0.984;2022-08-01T12:20:00;101027.22;;;27.40;35.90
42411;BME280;28056;51.112;0.984;2022-08-01T12:22:28;101030.13;;;26.47;34.97
42411;BME280;28056;51.112;0.984;2022-08-01T12:25:05;101025.32;;;28.59;33.25
42411;BME280;28056;51.112;0.984;2022-08-01T12:27:34;101025.19;;;28.68;33.45
42411;BME280;28056;51.112;0.984;2022-08-01T12:30:05;101025.02;;;28.64;35.67
42411;BME280;28056;51.112;0.984;2022-08-01T12:32:34;101029.21;;;28.99;34.84
42411;BME280;28056;51.112;0.984;2022-08-01T12:35:04;101031.55;;;29.17;31.80
42411;BME280;28056;51.112;0.984;2022-08-01T12:37:35;101029.84;;;28.40;31.40
42411;BME280;28056;51.112;0.984;2022-08-01T12:40:10;101033.19;;;29.86;29.70
42411;BME280;28056;51.112;0.984;2022-08-01T12:42:38;101033.91;;;29.60;30.94
42411;BME280;28056;51.112;0.984;2022-08-01T12:45:08;101036.92;;;31.04;26.64
42411;BME280;28056;51.112;0.984;2022-08-01T12:47:37;101029.39;;;28.90;30.66
42411;BME280;28056;51.112;0.984;2022-08-01T12:50:06;101026.97;;;29.32;30.81
42411;BME280;28056;51.112;0.984;2022-08-01T12:52:35;101028.81;;;29.07;32.33
42411;BME280;28056;51.112;0.984;2022-08-01T12:55:07;101025.42;;;29.94;31.22
42411;BME280;28056;51.112;0.984;2022-08-01T12:57:37;101026.28;;;30.58;30.86
42411;BME280;28056;51.112;0.984;2022-08-01T13:00:10;101028.74;;;31.60;28.98
42411;BME280;28056;51.112;0.984;2022-08-01T13:02:39;101022.95;;;29.51;32.29
42411;BME280;28056;51.112;0.984;2022-08-01T13:05:08;101022.90;;;29.80;31.94
42411;BME280;28056;51.112;0.984;2022-08-01T13:07:38;101018.27;;;29.69;32.89